sensor_id;sensor_type;location;lat;lon;timestamp;P1;durP1;ratioP1;P2;durP2;ratioP2
55292;SDS011;41157;53.560;10.098;2022-09-09T00:00:14;34.07;;;23.70;;
55292;SDS011;41157;53.560;10.098;2022-09-09T00:02:45;27.70;;;23.33;;
55292;SDS011;41157;53.560;10.098;2022-09-09T00:05:19;42.17;;;23.53;;
55292;SDS011;41157;53.560;10.098;2022-09-09T00:07:51;42.70;;;23.67;;
55292;SDS011;41157;53.560;10.098;2022-09-09T00:10:26;37.63;;;24.27;;
55292;SDS011;41157;53.560;10.098;2022-09-09T00:13:15;29.70;;;23.77;;
55292;SDS011;41157;53.560;10.098;2022-09-09T00:16:03;34.97;;;22.60;;
55292;SDS011;41157;53.560;10.098;2022-09-09T00:21:11;40.13;;;23.70;;
55292;SDS011;41157;53.560;10.098;2022-09-09T00:23:43;40.03;;;22.73;;
55292;SDS011;41157;53.560;10.098;2022-09-09T00:31:23;42.33;;;22.20;;
55292;SDS011;41157;53.560;10.098;2022-09-09T00:33:50;52.27;;;21.47;;
55292;SDS011;41157;53.560;10.098;2022-09-09T00:36:18;27.07;;;21.40;;
55292;SDS011;41157;53.560;10.098;2022-09-09T00:38:48;48.33;;;22.73;;
55292;SDS011;41157;53.560;10.098;2022-09-09T00:41:24;27.40;;;21.70;;
55292;SDS011;41157;53.560;10.098;2022-09-09T00:44:03;26.03;;;20.77;;
55292;SDS011;41157;53.560;10.098;2022-09-09T00:51:54;43.10;;;18.40;;
55292;SDS011;41157;53.560;10.098;2022-09-09T00:54:26;34.67;;;17.47;;
55292;SDS011;41157;53.560;10.098;2022-09-09T00:56:58;32.03;;;17.90;;
55292;SDS011;41157;53.560;10.098;2022-09-09T00:59:34;21.67;;;18.03;;
55292;SDS011;41157;53.560;10.098;2022-09-09T01:02:06;31.10;;;18.40;;
55292;SDS011;41157;53.560;10.098;2022-09-09T01:04:38;39.30;;;18.80;;
55292;SDS011;41157;53.560;10.098;2022-09-09T01:07:07;32.50;;;18.50;;
55292;SDS011;41157;53.560;10.098;2022-09-09T01:12:11;26.47;;;18.87;;
55292;SDS011;41157;53.560;10.098;2022-09-09T01:14:43;24.87;;;18.93;;
55292;SDS011;41157;53.560;10.098;2022-09-09T01:25:01;24.60;;;18.97;;
55292;SDS011;41157;53.560;10.098;2022-09-09T01:27:32;26.20;;;19.10;;
55292;SDS011;41157;53.560;10.098;2022-09-09T01:29:58;31.10;;;17.30;;
55292;SDS011;41157;53.560;10.098;2022-09-09T01:32:41;24.67;;;18.50;;
55292;SDS011;41157;53.560;10.098;2022-09-09T01:35:10;29.33;;;18.37;;
55292;SDS011;41157;53.560;10.098;2022-09-09T01:37:37;40.17;;;17.40;;
55292;SDS011;41157;53.560;10.098;2022-09-09T01:40:03;23.17;;;17.87;;
55292;SDS011;41157;53.560;10.098;2022-09-09T01:42:29;36.37;;;19.00;;
55292;SDS011;41157;53.560;10.098;2022-09-09T01:44:55;37.30;;;17.80;;
55292;SDS011;41157;53.560;10.098;2022-09-09T01:47:21;27.43;;;16.50;;
55292;SDS011;41157;53.560;10.098;2022-09-09T01:49:47;29.10;;;18.80;;
55292;SDS011;41157;53.560;10.098;2022-09-09T01:52:13;48.17;;;18.50;;
55292;SDS011;41157;53.560;10.098;2022-09-09T01:54:39;29.90;;;19.60;;
55292;SDS011;41157;53.560;10.098;2022-09-09T01:59:41;32.50;;;17.87;;
55292;SDS011;41157;53.560;10.098;2022-09-09T02:02:11;25.20;;;17.83;;
55292;SDS011;41157;53.560;10.098;2022-09-09T02:04:40;19.57;;;17.03;;
55292;SDS011;41157;53.560;10.098;2022-09-09T02:09:56;28.53;;;18.83;;
55292;SDS011;41157;53.560;10.098;2022-09-09T02:12:23;45.43;;;17.37;;
55292;SDS011;41157;53.560;10.098;2022-09-09T02:14:52;34.10;;;17.37;;
55292;SDS011;41157;53.560;10.098;2022-09-09T02:17:22;30.83;;;16.30;;
55292;SDS011;41157;53.560;10.098;2022-09-09T02:19:56;33.47;;;18.00;;
55292;SDS011;41157;53.560;10.098;2022-09-09T02:22:24;33.67;;;17.43;;
55292;SDS011;41157;53.560;10.098;2022-09-09T02:24:52;31.07;;;18.50;;
55292;SDS011;41157;53.560;10.098;2022-09-09T02:27:19;28.03;;;18.03;;
55292;SDS011;41157;53.560;10.098;2022-09-09T02:29:46;23.20;;;18.70;;
55292;SDS011;41157;53.560;10.098;2022-09-09T02:32:20;34.80;;;18.57;;
55292;SDS011;41157;53.560;10.098;2022-09-09T02:34:51;40.10;;;18.23;;
55292;SDS011;41157;53.560;10.098;2022-09-09T02:37:20;29.80;;;18.43;;
55292;SDS011;41157;53.560;10.098;2022-09-09T02:39:47;43.87;;;18.17;;
55292;SDS011;41157;53.560;10.098;2022-09-09T02:42:13;33.53;;;16.97;;
55292;SDS011;41157;53.560;10.098;2022-09-09T02:44:39;23.37;;;17.50;;
55292;SDS011;41157;53.560;10.098;2022-09-09T02:47:09;31.60;;;17.33;;
55292;SDS011;41157;53.560;10.098;2022-09-09T02:55:15;21.77;;;16.20;;
55292;SDS011;41157;53.560;10.098;2022-09-09T02:57:42;22.10;;;15.33;;
55292;SDS011;41157;53.560;10.098;2022-09-09T03:00:10;22.27;;;15.07;;
55292;SDS011;41157;53.560;10.098;2022-09-09T03:02:36;38.73;;;15.13;;
55292;SDS011;41157;53.560;10.098;2022-09-09T03:05:03;18.43;;;15.63;;
55292;SDS011;41157;53.560;10.098;2022-09-09T03:07:29;21.90;;;15.40;;
55292;SDS011;41157;53.560;10.098;2022-09-09T03:09:55;19.83;;;16.17;;
55292;SDS011;41157;53.560;10.098;2022-09-09T03:12:21;22.07;;;15.27;;
55292;SDS011;41157;53.560;10.098;2022-09-09T03:14:47;25.93;;;16.23;;
55292;SDS011;41157;53.560;10.098;2022-09-09T03:17:13;35.30;;;16.90;;
55292;SDS011;41157;53.560;10.098;2022-09-09T03:19:39;29.43;;;17.00;;
55292;SDS011;41157;53.560;10.098;2022-09-09T03:22:05;25.97;;;18.33;;
55292;SDS011;41157;53.560;10.098;2022-09-09T03:24:32;28.77;;;15.53;;
55292;SDS011;41157;53.560;10.098;2022-09-09T03:26:57;22.13;;;16.73;;
55292;SDS011;41157;53.560;10.098;2022-09-09T03:29:23;18.93;;;15.53;;
55292;SDS011;41157;53.560;10.098;2022-09-09T03:31:49;19.60;;;15.80;;
55292;SDS011;41157;53.560;10.098;2022-09-09T03:34:16;20.77;;;16.53;;
55292;SDS011;41157;53.560;10.098;2022-09-09T03:36:42;24.97;;;16.57;;
55292;SDS011;41157;53.560;10.098;2022-09-09T03:39:08;22.60;;;17.07;;
55292;SDS011;41157;53.560;10.098;2022-09-09T03:41:33;20.90;;;17.23;;
55292;SDS011;41157;53.560;10.098;2022-09-09T03:43:59;21.93;;;16.30;;
55292;SDS011;41157;53.560;10.098;2022-09-09T03:46:25;28.70;;;15.27;;
55292;SDS011;41157;53.560;10.098;2022-09-09T03:48:52;18.73;;;15.50;;
55292;SDS011;41157;53.560;10.098;2022-09-09T03:51:18;28.37;;;15.80;;
55292;SDS011;41157;53.560;10.098;2022-09-09T03:53:44;25.83;;;15.20;;
55292;SDS011;41157;53.560;10.098;2022-09-09T03:56:10;31.60;;;14.50;;
55292;SDS011;41157;53.560;10.098;2022-09-09T03:58:36;30.10;;;13.37;;
55292;SDS011;41157;53.560;10.098;2022-09-09T04:01:04;20.37;;;14.57;;
55292;SDS011;41157;53.560;10.098;2022-09-09T04:03:30;17.80;;;13.97;;
55292;SDS011;41157;53.560;10.098;2022-09-09T04:05:57;17.23;;;14.97;;
55292;SDS011;41157;53.560;10.098;2022-09-09T04:08:23;25.20;;;15.03;;
55292;SDS011;41157;53.560;10.098;2022-09-09T04:10:53;20.53;;;14.07;;
55292;SDS011;41157;53.560;10.098;2022-09-09T04:13:23;30.33;;;13.57;;
55292;SDS011;41157;53.560;10.098;2022-09-09T04:15:53;19.67;;;14.10;;
55292;SDS011;41157;53.560;10.098;2022-09-09T04:18:19;25.47;;;14.60;;
55292;SDS011;41157;53.560;10.098;2022-09-09T04:20:46;33.20;;;14.70;;
55292;SDS011;41157;53.560;10.098;2022-09-09T04:23:13;22.67;;;14.60;;
55292;SDS011;41157;53.560;10.098;2022-09-09T04:25:43;21.80;;;14.27;;
55292;SDS011;41157;53.560;10.098;2022-09-09T04:28:09;18.97;;;14.67;;
55292;SDS011;41157;53.560;10.098;2022-09-09T04:30:35;19.07;;;14.13;;
55292;SDS011;41157;53.560;10.098;2022-09-09T04:33:01;22.00;;;14.90;;
55292;SDS011;41157;53.560;10.098;2022-09-09T04:35:27;18.20;;;14.23;;
55292;SDS011;41157;53.560;10.098;2022-09-09T04:37:53;17.60;;;14.97;;
55292;SDS011;41157;53.560;10.098;2022-09-09T04:40:19;17.77;;;14.70;;
55292;SDS011;41157;53.560;10.098;2022-09-09T04:42:47;19.13;;;14.57;;
55292;SDS011;41157;53.560;10.098;2022-09-09T04:45:14;23.33;;;14.77;;
55292;SDS011;41157;53.560;10.098;2022-09-09T04:47:40;18.80;;;14.80;;
55292;SDS011;41157;53.560;10.098;2022-09-09T04:50:07;17.97;;;14.30;;
55292;SDS011;41157;53.560;10.098;2022-09-09T04:52:34;17.40;;;14.53;;
55292;SDS011;41157;53.560;10.098;2022-09-09T04:55:00;20.23;;;15.60;;
55292;SDS011;41157;53.560;10.098;2022-09-09T04:57:26;19.50;;;14.63;;
55292;SDS011;41157;53.560;10.098;2022-09-09T04:59:53;18.37;;;14.73;;
55292;SDS011;41157;53.560;10.098;2022-09-09T05:02:19;17.07;;;14.57;;
55292;SDS011;41157;53.560;10.098;2022-09-09T05:04:45;18.20;;;15.07;;
55292;SDS011;41157;53.560;10.098;2022-09-09T05:07:11;18.87;;;14.77;;
55292;SDS011;41157;53.560;10.098;2022-09-09T05:09:38;19.07;;;15.23;;
55292;SDS011;41157;53.560;10.098;2022-09-09T05:12:04;16.03;;;13.57;;
55292;SDS011;41157;53.560;10.098;2022-09-09T05:14:30;16.77;;;13.50;;
55292;SDS011;41157;53.560;10.098;2022-09-09T05:16:56;17.97;;;13.83;;
55292;SDS011;41157;53.560;10.098;2022-09-09T05:19:23;15.93;;;13.97;;
55292;SDS011;41157;53.560;10.098;2022-09-09T05:21:49;16.60;;;13.67;;
55292;SDS011;41157;53.560;10.098;2022-09-09T05:24:15;18.33;;;13.43;;
55292;SDS011;41157;53.560;10.098;2022-09-09T05:26:42;21.27;;;13.73;;
55292;SDS011;41157;53.560;10.098;2022-09-09T05:29:09;16.00;;;13.10;;
55292;SDS011;41157;53.560;10.098;2022-09-09T05:31:35;18.20;;;13.03;;
55292;SDS011;41157;53.560;10.098;2022-09-09T05:34:01;17.33;;;12.47;;
55292;SDS011;41157;53.560;10.098;2022-09-09T05:36:27;16.80;;;13.23;;
55292;SDS011;41157;53.560;10.098;2022-09-09T05:38:53;15.97;;;13.30;;
55292;SDS011;41157;53.560;10.098;2022-09-09T05:41:19;17.93;;;12.90;;
55292;SDS011;41157;53.560;10.098;2022-09-09T05:43:46;15.03;;;12.23;;
55292;SDS011;41157;53.560;10.098;2022-09-09T05:46:13;14.33;;;12.20;;
55292;SDS011;41157;53.560;10.098;2022-09-09T05:48:40;13.23;;;10.83;;
55292;SDS011;41157;53.560;10.098;2022-09-09T05:51:10;15.83;;;11.20;;
55292;SDS011;41157;53.560;10.098;2022-09-09T05:53:38;14.77;;;11.83;;
55292;SDS011;41157;53.560;10.098;2022-09-09T05:56:05;15.27;;;10.90;;
55292;SDS011;41157;53.560;10.098;2022-09-09T05:58:31;10.93;;;9.57;;
55292;SDS011;41157;53.560;10.098;2022-09-09T06:01:16;12.43;;;10.90;;
55292;SDS011;41157;53.560;10.098;2022-09-09T06:03:43;10.60;;;9.40;;
55292;SDS011;41157;53.560;10.098;2022-09-09T06:06:10;12.23;;;9.67;;
55292;SDS011;41157;53.560;10.098;2022-09-09T06:08:38;13.10;;;9.30;;
55292;SDS011;41157;53.560;10.098;2022-09-09T06:13:31;10.77;;;9.13;;
55292;SDS011;41157;53.560;10.098;2022-09-09T06:15:57;10.53;;;9.43;;
55292;SDS011;41157;53.560;10.098;2022-09-09T06:18:23;9.97;;;8.97;;
55292;SDS011;41157;53.560;10.098;2022-09-09T06:20:59;9.73;;;8.03;;
55292;SDS011;41157;53.560;10.098;2022-09-09T06:23:31;12.33;;;9.30;;
55292;SDS011;41157;53.560;10.098;2022-09-09T06:26:02;10.30;;;8.53;;
55292;SDS011;41157;53.560;10.098;2022-09-09T06:28:28;11.97;;;8.00;;
55292;SDS011;41157;53.560;10.098;2022-09-09T06:31:01;10.03;;;8.00;;
55292;SDS011;41157;53.560;10.098;2022-09-09T06:33:30;10.23;;;7.97;;
55292;SDS011;41157;53.560;10.098;2022-09-09T06:35:57;11.73;;;7.63;;
55292;SDS011;41157;53.560;10.098;2022-09-09T06:38:23;10.03;;;7.90;;
55292;SDS011;41157;53.560;10.098;2022-09-09T06:40:52;11.57;;;7.93;;
55292;SDS011;41157;53.560;10.098;2022-09-09T06:43:20;13.40;;;7.50;;
55292;SDS011;41157;53.560;10.098;2022-09-09T06:46:20;11.97;;;7.60;;
55292;SDS011;41157;53.560;10.098;2022-09-09T06:48:38;10.40;;;7.53;;
55292;SDS011;41157;53.560;10.098;2022-09-09T06:53:37;8.67;;;6.77;;
55292;SDS011;41157;53.560;10.098;2022-09-09T06:58:41;7.67;;;6.63;;
55292;SDS011;41157;53.560;10.098;2022-09-09T07:01:09;9.03;;;7.13;;
55292;SDS011;41157;53.560;10.098;2022-09-09T07:03:35;12.83;;;7.00;;
55292;SDS011;41157;53.560;10.098;2022-09-09T07:06:02;10.47;;;6.90;;
55292;SDS011;41157;53.560;10.098;2022-09-09T07:08:29;10.10;;;6.30;;
55292;SDS011;41157;53.560;10.098;2022-09-09T07:11:01;8.07;;;6.10;;
55292;SDS011;41157;53.560;10.098;2022-09-09T07:13:27;9.60;;;5.77;;
55292;SDS011;41157;53.560;10.098;2022-09-09T07:15:53;7.53;;;5.60;;
55292;SDS011;41157;53.560;10.098;2022-09-09T07:18:19;7.53;;;5.67;;
55292;SDS011;41157;53.560;10.098;2022-09-09T07:20:54;9.03;;;5.37;;
55292;SDS011;41157;53.560;10.098;2022-09-09T07:23:22;8.07;;;5.57;;
55292;SDS011;41157;53.560;10.098;2022-09-09T07:25:48;7.20;;;5.30;;
55292;SDS011;41157;53.560;10.098;2022-09-09T07:28:15;5.30;;;4.80;;
55292;SDS011;41157;53.560;10.098;2022-09-09T07:30:41;7.57;;;5.20;;
55292;SDS011;41157;53.560;10.098;2022-09-09T07:33:07;6.33;;;4.20;;
55292;SDS011;41157;53.560;10.098;2022-09-09T07:35:34;6.50;;;4.50;;
55292;SDS011;41157;53.560;10.098;2022-09-09T07:38:01;6.30;;;4.33;;
55292;SDS011;41157;53.560;10.098;2022-09-09T07:40:30;6.78;;;4.07;;
55292;SDS011;41157;53.560;10.098;2022-09-09T07:42:56;6.90;;;4.03;;
55292;SDS011;41157;53.560;10.098;2022-09-09T07:45:22;5.18;;;4.05;;
55292;SDS011;41157;53.560;10.098;2022-09-09T07:47:48;6.20;;;4.73;;
55292;SDS011;41157;53.560;10.098;2022-09-09T07:50:14;6.15;;;3.58;;
55292;SDS011;41157;53.560;10.098;2022-09-09T07:52:40;6.57;;;3.60;;
55292;SDS011;41157;53.560;10.098;2022-09-09T07:55:06;6.57;;;3.47;;
55292;SDS011;41157;53.560;10.098;2022-09-09T07:57:32;8.70;;;3.60;;
55292;SDS011;41157;53.560;10.098;2022-09-09T07:59:58;4.82;;;3.45;;
55292;SDS011;41157;53.560;10.098;2022-09-09T08:02:24;3.80;;;3.40;;
55292;SDS011;41157;53.560;10.098;2022-09-09T08:04:52;8.38;;;3.80;;
55292;SDS011;41157;53.560;10.098;2022-09-09T08:07:18;5.05;;;3.25;;
55292;SDS011;41157;53.560;10.098;2022-09-09T08:09:46;7.93;;;3.20;;
55292;SDS011;41157;53.560;10.098;2022-09-09T08:12:12;4.00;;;3.13;;
55292;SDS011;41157;53.560;10.098;2022-09-09T08:14:39;5.18;;;3.42;;
55292;SDS011;41157;53.560;10.098;2022-09-09T08:17:05;6.40;;;3.00;;
55292;SDS011;41157;53.560;10.098;2022-09-09T08:19:31;4.60;;;2.78;;
55292;SDS011;41157;53.560;10.098;2022-09-09T08:22:00;3.95;;;2.78;;
55292;SDS011;41157;53.560;10.098;2022-09-09T08:24:27;6.22;;;3.10;;
55292;SDS011;41157;53.560;10.098;2022-09-09T08:26:53;4.28;;;3.03;;
55292;SDS011;41157;53.560;10.098;2022-09-09T08:29:21;7.50;;;2.90;;
55292;SDS011;41157;53.560;10.098;2022-09-09T08:31:48;3.38;;;2.78;;
55292;SDS011;41157;53.560;10.098;2022-09-09T08:34:15;4.60;;;3.05;;
55292;SDS011;41157;53.560;10.098;2022-09-09T08:36:42;5.15;;;2.90;;
55292;SDS011;41157;53.560;10.098;2022-09-09T08:39:09;5.22;;;2.58;;
55292;SDS011;41157;53.560;10.098;2022-09-09T08:51:45;5.03;;;2.45;;
55292;SDS011;41157;53.560;10.098;2022-09-09T08:54:11;3.45;;;2.17;;
55292;SDS011;41157;53.560;10.098;2022-09-09T08:56:37;5.32;;;2.63;;
55292;SDS011;41157;53.560;10.098;2022-09-09T08:59:09;2.80;;;2.00;;
55292;SDS011;41157;53.560;10.098;2022-09-09T09:11:58;6.40;;;2.10;;
55292;SDS011;41157;53.560;10.098;2022-09-09T09:14:27;8.60;;;2.25;;
55292;SDS011;41157;53.560;10.098;2022-09-09T09:16:58;3.55;;;2.08;;
55292;SDS011;41157;53.560;10.098;2022-09-09T09:19:24;6.40;;;2.22;;
55292;SDS011;41157;53.560;10.098;2022-09-09T09:24:25;5.22;;;2.00;;
55292;SDS011;41157;53.560;10.098;2022-09-09T09:26:53;4.47;;;2.20;;
55292;SDS011;41157;53.560;10.098;2022-09-09T09:29:19;3.15;;;1.80;;
55292;SDS011;41157;53.560;10.098;2022-09-09T09:31:53;3.28;;;1.90;;
55292;SDS011;41157;53.560;10.098;2022-09-09T09:34:20;4.80;;;1.90;;
55292;SDS011;41157;53.560;10.098;2022-09-09T09:36:55;4.43;;;2.10;;
55292;SDS011;41157;53.560;10.098;2022-09-09T09:39:22;2.35;;;1.83;;
55292;SDS011;41157;53.560;10.098;2022-09-09T09:41:48;3.83;;;1.63;;
55292;SDS011;41157;53.560;10.098;2022-09-09T09:46:50;7.95;;;2.10;;
55292;SDS011;41157;53.560;10.098;2022-09-09T09:49:16;3.75;;;1.80;;
55292;SDS011;41157;53.560;10.098;2022-09-09T09:51:42;3.55;;;1.73;;
55292;SDS011;41157;53.560;10.098;2022-09-09T09:56:53;3.13;;;1.90;;
55292;SDS011;41157;53.560;10.098;2022-09-09T09:59:24;2.05;;;1.60;;
55292;SDS011;41157;53.560;10.098;2022-09-09T10:02:18;3.95;;;1.80;;
55292;SDS011;41157;53.560;10.098;2022-09-09T10:04:44;3.60;;;1.70;;
55292;SDS011;41157;53.560;10.098;2022-09-09T10:07:11;3.88;;;1.77;;
55292;SDS011;41157;53.560;10.098;2022-09-09T10:09:37;2.42;;;1.63;;
55292;SDS011;41157;53.560;10.098;2022-09-09T10:12:12;2.92;;;1.40;;
55292;SDS011;41157;53.560;10.098;2022-09-09T10:19:38;2.67;;;1.20;;
55292;SDS011;41157;53.560;10.098;2022-09-09T10:32:31;2.97;;;1.30;;
55292;SDS011;41157;53.560;10.098;2022-09-09T10:35:09;3.25;;;1.40;;
55292;SDS011;41157;53.560;10.098;2022-09-09T10:37:46;3.05;;;1.30;;
55292;SDS011;41157;53.560;10.098;2022-09-09T10:42:41;2.55;;;1.20;;
55292;SDS011;41157;53.560;10.098;2022-09-09T10:45:18;6.35;;;1.15;;
55292;SDS011;41157;53.560;10.098;2022-09-09T10:48:02;3.28;;;1.13;;
55292;SDS011;41157;53.560;10.098;2022-09-09T10:55:43;3.53;;;1.30;;
55292;SDS011;41157;53.560;10.098;2022-09-09T10:58:15;2.85;;;1.42;;
55292;SDS011;41157;53.560;10.098;2022-09-09T11:00:51;2.55;;;1.10;;
55292;SDS011;41157;53.560;10.098;2022-09-09T11:03:19;1.23;;;0.90;;
55292;SDS011;41157;53.560;10.098;2022-09-09T11:05:46;2.28;;;1.17;;
55292;SDS011;41157;53.560;10.098;2022-09-09T11:10:42;2.40;;;1.17;;
55292;SDS011;41157;53.560;10.098;2022-09-09T11:13:14;3.08;;;1.40;;
55292;SDS011;41157;53.560;10.098;2022-09-09T11:15:43;5.10;;;1.40;;
55292;SDS011;41157;53.560;10.098;2022-09-09T11:18:15;4.60;;;1.63;;
55292;SDS011;41157;53.560;10.098;2022-09-09T11:20:43;3.47;;;1.30;;
55292;SDS011;41157;53.560;10.098;2022-09-09T11:23:14;1.75;;;1.17;;
55292;SDS011;41157;53.560;10.098;2022-09-09T11:25:57;2.55;;;1.00;;
55292;SDS011;41157;53.560;10.098;2022-09-09T11:28:45;2.15;;;1.17;;
55292;SDS011;41157;53.560;10.098;2022-09-09T11:31:37;2.30;;;1.23;;
55292;SDS011;41157;53.560;10.098;2022-09-09T11:39:38;3.97;;;1.88;;
55292;SDS011;41157;53.560;10.098;2022-09-09T11:42:15;3.17;;;1.40;;
55292;SDS011;41157;53.560;10.098;2022-09-09T11:44:42;3.90;;;1.10;;
55292;SDS011;41157;53.560;10.098;2022-09-09T11:49:44;2.45;;;1.30;;
55292;SDS011;41157;53.560;10.098;2022-09-09T11:54:56;3.38;;;1.10;;
55292;SDS011;41157;53.560;10.098;2022-09-09T11:57:30;4.20;;;1.25;;
55292;SDS011;41157;53.560;10.098;2022-09-09T11:59:56;1.42;;;1.25;;
55292;SDS011;41157;53.560;10.098;2022-09-09T12:02:26;3.53;;;1.23;;
55292;SDS011;41157;53.560;10.098;2022-09-09T12:07:33;3.47;;;1.35;;
55292;SDS011;41157;53.560;10.098;2022-09-09T12:12:45;3.92;;;1.40;;
55292;SDS011;41157;53.560;10.098;2022-09-09T12:17:44;2.83;;;1.30;;
55292;SDS011;41157;53.560;10.098;2022-09-09T12:20:23;1.52;;;1.15;;
55292;SDS011;41157;53.560;10.098;2022-09-09T12:22:59;4.35;;;1.45;;
55292;SDS011;41157;53.560;10.098;2022-09-09T12:25:45;3.78;;;1.13;;
55292;SDS011;41157;53.560;10.098;2022-09-09T12:28:20;5.53;;;1.50;;
55292;SDS011;41157;53.560;10.098;2022-09-09T12:31:06;2.97;;;1.65;;
55292;SDS011;41157;53.560;10.098;2022-09-09T12:33:36;2.70;;;1.48;;
55292;SDS011;41157;53.560;10.098;2022-09-09T12:36:04;2.70;;;1.50;;
55292;SDS011;41157;53.560;10.098;2022-09-09T12:38:32;3.75;;;1.10;;
55292;SDS011;41157;53.560;10.098;2022-09-09T12:41:00;3.83;;;1.50;;
55292;SDS011;41157;53.560;10.098;2022-09-09T12:43:29;5.32;;;1.48;;
55292;SDS011;41157;53.560;10.098;2022-09-09T12:46:03;5.57;;;1.90;;
55292;SDS011;41157;53.560;10.098;2022-09-09T12:48:34;2.15;;;1.40;;
55292;SDS011;41157;53.560;10.098;2022-09-09T12:51:01;2.45;;;1.60;;
55292;SDS011;41157;53.560;10.098;2022-09-09T12:53:31;3.03;;;2.00;;
55292;SDS011;41157;53.560;10.098;2022-09-09T12:55:59;4.72;;;1.90;;
55292;SDS011;41157;53.560;10.098;2022-09-09T12:58:27;3.22;;;1.45;;
55292;SDS011;41157;53.560;10.098;2022-09-09T13:00:57;6.88;;;1.58;;
55292;SDS011;41157;53.560;10.098;2022-09-09T13:03:24;6.28;;;1.60;;
55292;SDS011;41157;53.560;10.098;2022-09-09T13:05:50;2.83;;;1.48;;
55292;SDS011;41157;53.560;10.098;2022-09-09T13:08:16;5.03;;;1.73;;
55292;SDS011;41157;53.560;10.098;2022-09-09T13:13:15;3.80;;;1.70;;
55292;SDS011;41157;53.560;10.098;2022-09-09T13:15:48;3.40;;;1.60;;
55292;SDS011;41157;53.560;10.098;2022-09-09T13:18:14;3.35;;;1.90;;
55292;SDS011;41157;53.560;10.098;2022-09-09T13:20:45;3.88;;;1.73;;
55292;SDS011;41157;53.560;10.098;2022-09-09T13:23:11;2.72;;;1.52;;
55292;SDS011;41157;53.560;10.098;2022-09-09T13:25:38;3.97;;;1.95;;
55292;SDS011;41157;53.560;10.098;2022-09-09T13:28:04;4.32;;;1.80;;
55292;SDS011;41157;53.560;10.098;2022-09-09T13:30:32;3.88;;;1.70;;
55292;SDS011;41157;53.560;10.098;2022-09-09T13:35:27;4.75;;;1.75;;
55292;SDS011;41157;53.560;10.098;2022-09-09T13:37:53;2.45;;;1.83;;
55292;SDS011;41157;53.560;10.098;2022-09-09T13:40:20;5.78;;;2.30;;
55292;SDS011;41157;53.560;10.098;2022-09-09T13:42:46;6.00;;;2.47;;
55292;SDS011;41157;53.560;10.098;2022-09-09T13:45:17;5.15;;;2.30;;
55292;SDS011;41157;53.560;10.098;2022-09-09T13:47:45;3.78;;;2.58;;
55292;SDS011;41157;53.560;10.098;2022-09-09T13:50:25;6.57;;;2.50;;
55292;SDS011;41157;53.560;10.098;2022-09-09T13:52:52;6.90;;;2.65;;
55292;SDS011;41157;53.560;10.098;2022-09-09T13:55:22;7.10;;;2.50;;
55292;SDS011;41157;53.560;10.098;2022-09-09T13:57:52;7.85;;;2.70;;
55292;SDS011;41157;53.560;10.098;2022-09-09T14:00:19;5.45;;;2.70;;
55292;SDS011;41157;53.560;10.098;2022-09-09T14:02:45;4.75;;;2.67;;
55292;SDS011;41157;53.560;10.098;2022-09-09T14:05:12;4.40;;;2.80;;
55292;SDS011;41157;53.560;10.098;2022-09-09T14:07:38;3.70;;;2.67;;
55292;SDS011;41157;53.560;10.098;2022-09-09T14:10:05;9.43;;;2.70;;
55292;SDS011;41157;53.560;10.098;2022-09-09T14:12:31;9.48;;;3.42;;
55292;SDS011;41157;53.560;10.098;2022-09-09T14:14:57;5.72;;;3.17;;
55292;SDS011;41157;53.560;10.098;2022-09-09T14:17:24;8.18;;;3.20;;
55292;SDS011;41157;53.560;10.098;2022-09-09T14:19:54;8.27;;;3.00;;
55292;SDS011;41157;53.560;10.098;2022-09-09T14:22:21;4.63;;;2.72;;
55292;SDS011;41157;53.560;10.098;2022-09-09T14:24:47;4.82;;;2.92;;
55292;SDS011;41157;53.560;10.098;2022-09-09T14:27:13;4.05;;;3.00;;
55292;SDS011;41157;53.560;10.098;2022-09-09T14:29:39;5.10;;;2.60;;
55292;SDS011;41157;53.560;10.098;2022-09-09T14:32:05;8.55;;;2.95;;
55292;SDS011;41157;53.560;10.098;2022-09-09T14:34:31;8.15;;;2.92;;
55292;SDS011;41157;53.560;10.098;2022-09-09T14:36:57;4.55;;;2.72;;
55292;SDS011;41157;53.560;10.098;2022-09-09T14:39:23;6.57;;;3.13;;
55292;SDS011;41157;53.560;10.098;2022-09-09T14:41:49;8.95;;;2.70;;
55292;SDS011;41157;53.560;10.098;2022-09-09T14:44:15;7.75;;;2.70;;
55292;SDS011;41157;53.560;10.098;2022-09-09T14:46:41;4.65;;;2.60;;
55292;SDS011;41157;53.560;10.098;2022-09-09T14:49:07;4.53;;;2.70;;
55292;SDS011;41157;53.560;10.098;2022-09-09T14:51:35;6.03;;;2.65;;
55292;SDS011;41157;53.560;10.098;2022-09-09T14:54:01;4.80;;;2.72;;
55292;SDS011;41157;53.560;10.098;2022-09-09T14:56:29;4.50;;;2.70;;
55292;SDS011;41157;53.560;10.098;2022-09-09T14:58:55;7.00;;;2.80;;
55292;SDS011;41157;53.560;10.098;2022-09-09T15:01:22;7.00;;;3.13;;
55292;SDS011;41157;53.560;10.098;2022-09-09T15:03:52;5.22;;;2.42;;
55292;SDS011;41157;53.560;10.098;2022-09-09T15:06:19;4.30;;;2.63;;
55292;SDS011;41157;53.560;10.098;2022-09-09T15:08:45;4.50;;;2.30;;
55292;SDS011;41157;53.560;10.098;2022-09-09T15:11:12;2.67;;;1.80;;
55292;SDS011;41157;53.560;10.098;2022-09-09T15:13:39;3.20;;;1.80;;
55292;SDS011;41157;53.560;10.098;2022-09-09T15:18:34;4.03;;;1.92;;
55292;SDS011;41157;53.560;10.098;2022-09-09T15:21:01;3.33;;;1.75;;
55292;SDS011;41157;53.560;10.098;2022-09-09T15:23:31;4.72;;;2.00;;
55292;SDS011;41157;53.560;10.098;2022-09-09T15:25:57;4.82;;;1.90;;
55292;SDS011;41157;53.560;10.098;2022-09-09T15:28:23;4.00;;;1.88;;
55292;SDS011;41157;53.560;10.098;2022-09-09T15:30:50;3.50;;;1.80;;
55292;SDS011;41157;53.560;10.098;2022-09-09T15:33:20;6.65;;;1.95;;
55292;SDS011;41157;53.560;10.098;2022-09-09T15:35:46;2.50;;;1.70;;
55292;SDS011;41157;53.560;10.098;2022-09-09T15:38:12;3.72;;;1.85;;
55292;SDS011;41157;53.560;10.098;2022-09-09T15:40:41;3.28;;;1.58;;
55292;SDS011;41157;53.560;10.098;2022-09-09T15:43:07;5.28;;;1.50;;
55292;SDS011;41157;53.560;10.098;2022-09-09T15:45:34;3.75;;;1.75;;
55292;SDS011;41157;53.560;10.098;2022-09-09T15:48:00;6.05;;;2.20;;
55292;SDS011;41157;53.560;10.098;2022-09-09T15:50:27;8.25;;;2.10;;
55292;SDS011;41157;53.560;10.098;2022-09-09T15:52:56;5.30;;;2.50;;
55292;SDS011;41157;53.560;10.098;2022-09-09T15:55:22;3.72;;;2.00;;
55292;SDS011;41157;53.560;10.098;2022-09-09T15:57:51;6.13;;;2.88;;
55292;SDS011;41157;53.560;10.098;2022-09-09T16:00:18;8.43;;;2.35;;
55292;SDS011;41157;53.560;10.098;2022-09-09T16:02:44;4.20;;;2.40;;
55292;SDS011;41157;53.560;10.098;2022-09-09T16:05:10;2.28;;;2.08;;
55292;SDS011;41157;53.560;10.098;2022-09-09T16:07:36;7.78;;;2.53;;
55292;SDS011;41157;53.560;10.098;2022-09-09T16:10:02;3.63;;;2.10;;
55292;SDS011;41157;53.560;10.098;2022-09-09T16:12:28;4.10;;;2.28;;
55292;SDS011;41157;53.560;10.098;2022-09-09T16:14:54;4.30;;;2.00;;
55292;SDS011;41157;53.560;10.098;2022-09-09T16:17:20;4.22;;;2.28;;
55292;SDS011;41157;53.560;10.098;2022-09-09T16:19:46;2.90;;;2.28;;
55292;SDS011;41157;53.560;10.098;2022-09-09T16:22:12;3.55;;;2.10;;
55292;SDS011;41157;53.560;10.098;2022-09-09T16:24:40;5.30;;;2.13;;
55292;SDS011;41157;53.560;10.098;2022-09-09T16:27:06;4.03;;;1.80;;
55292;SDS011;41157;53.560;10.098;2022-09-09T16:29:32;3.50;;;1.95;;
55292;SDS011;41157;53.560;10.098;2022-09-09T16:31:58;4.70;;;2.22;;